sensor_id;sensor_type;location;lat;lon;timestamp;P1;durP1;ratioP1;P2;durP2;ratioP2
60098;SDS011;62818;49.394;8.686;2022-11-20T00:00:26;9.43;;;8.50;;
60098;SDS011;62818;49.394;8.686;2022-11-20T00:01:29;12.07;;;8.68;;
60098;SDS011;62818;49.394;8.686;2022-11-20T00:02:30;11.63;;;8.90;;
60098;SDS011;62818;49.394;8.686;2022-11-20T00:03:38;9.35;;;8.35;;
60098;SDS011;62818;49.394;8.686;2022-11-20T00:04:38;9.63;;;8.10;;
60098;SDS011;62818;49.394;8.686;2022-11-20T00:05:44;9.57;;;8.63;;
60098;SDS011;62818;49.394;8.686;2022-11-20T00:06:47;8.93;;;8.13;;
60098;SDS011;62818;49.394;8.686;2022-11-20T00:07:48;9.83;;;8.83;;
60098;SDS011;62818;49.394;8.686;2022-11-20T00:08:48;12.93;;;8.73;;
60098;SDS011;62818;49.394;8.686;2022-11-20T00:10:53;8.88;;;7.97;;
60098;SDS011;62818;49.394;8.686;2022-11-20T00:11:55;8.52;;;7.63;;
60098;SDS011;62818;49.394;8.686;2022-11-20T00:12:58;8.27;;;7.47;;
60098;SDS011;62818;49.394;8.686;2022-11-20T00:14:00;8.88;;;7.97;;
60098;SDS011;62818;49.394;8.686;2022-11-20T00:15:03;9.27;;;8.02;;
60098;SDS011;62818;49.394;8.686;2022-11-20T00:16:07;10.25;;;8.05;;
60098;SDS011;62818;49.394;8.686;2022-11-20T00:17:13;8.65;;;7.75;;
60098;SDS011;62818;49.394;8.686;2022-11-20T00:18:16;8.82;;;7.93;;
60098;SDS011;62818;49.394;8.686;2022-11-20T00:19:19;9.27;;;8.23;;
60098;SDS011;62818;49.394;8.686;2022-11-20T00:20:22;9.77;;;7.80;;
60098;SDS011;62818;49.394;8.686;2022-11-20T00:21:26;8.70;;;7.80;;
60098;SDS011;62818;49.394;8.686;2022-11-20T00:22:30;9.00;;;7.85;;
60098;SDS011;62818;49.394;8.686;2022-11-20T00:23:35;8.75;;;7.85;;
60098;SDS011;62818;49.394;8.686;2022-11-20T00:24:41;9.60;;;8.05;;
60098;SDS011;62818;49.394;8.686;2022-11-20T00:25:44;8.73;;;7.93;;
60098;SDS011;62818;49.394;8.686;2022-11-20T00:26:47;9.00;;;8.13;;
60098;SDS011;62818;49.394;8.686;2022-11-20T00:27:48;9.60;;;8.40;;
60098;SDS011;62818;49.394;8.686;2022-11-20T00:28:52;10.23;;;7.95;;
60098;SDS011;62818;49.394;8.686;2022-11-20T00:29:56;10.82;;;7.82;;
60098;SDS011;62818;49.394;8.686;2022-11-20T00:31:02;8.65;;;7.75;;
60098;SDS011;62818;49.394;8.686;2022-11-20T00:32:13;8.70;;;7.80;;
60098;SDS011;62818;49.394;8.686;2022-11-20T00:33:14;8.70;;;7.80;;
60098;SDS011;62818;49.394;8.686;2022-11-20T00:34:15;9.50;;;7.07;;
60098;SDS011;62818;49.394;8.686;2022-11-20T00:35:20;8.68;;;7.85;;
60098;SDS011;62818;49.394;8.686;2022-11-20T00:36:23;8.75;;;7.85;;
60098;SDS011;62818;49.394;8.686;2022-11-20T00:37:26;8.95;;;7.78;;
60098;SDS011;62818;49.394;8.686;2022-11-20T00:38:26;8.07;;;7.27;;
60098;SDS011;62818;49.394;8.686;2022-11-20T00:39:27;8.60;;;7.73;;
60098;SDS011;62818;49.394;8.686;2022-11-20T00:40:27;7.80;;;7.00;;
60098;SDS011;62818;49.394;8.686;2022-11-20T00:41:28;8.43;;;7.63;;
60098;SDS011;62818;49.394;8.686;2022-11-20T00:42:32;8.77;;;7.63;;
60098;SDS011;62818;49.394;8.686;2022-11-20T00:43:36;8.65;;;7.75;;
60098;SDS011;62818;49.394;8.686;2022-11-20T00:44:37;9.27;;;8.25;;
60098;SDS011;62818;49.394;8.686;2022-11-20T00:45:40;9.63;;;8.48;;
60098;SDS011;62818;49.394;8.686;2022-11-20T00:46:40;9.30;;;8.40;;
60098;SDS011;62818;49.394;8.686;2022-11-20T00:47:45;9.73;;;8.20;;
60098;SDS011;62818;49.394;8.686;2022-11-20T00:48:46;9.73;;;8.73;;
60098;SDS011;62818;49.394;8.686;2022-11-20T00:49:49;10.00;;;9.00;;
60098;SDS011;62818;49.394;8.686;2022-11-20T00:50:50;9.00;;;8.17;;
60098;SDS011;62818;49.394;8.686;2022-11-20T00:51:50;9.17;;;8.33;;
60098;SDS011;62818;49.394;8.686;2022-11-20T00:52:53;9.03;;;8.13;;
60098;SDS011;62818;49.394;8.686;2022-11-20T00:53:59;9.45;;;8.55;;
60098;SDS011;62818;49.394;8.686;2022-11-20T00:55:01;9.27;;;7.95;;
60098;SDS011;62818;49.394;8.686;2022-11-20T00:56:03;8.75;;;7.85;;
60098;SDS011;62818;49.394;8.686;2022-11-20T00:57:06;9.50;;;8.60;;
60098;SDS011;62818;49.394;8.686;2022-11-20T00:58:09;9.07;;;8.17;;
60098;SDS011;62818;49.394;8.686;2022-11-20T00:59:15;8.88;;;8.00;;
60098;SDS011;62818;49.394;8.686;2022-11-20T01:00:20;9.30;;;7.47;;
60098;SDS011;62818;49.394;8.686;2022-11-20T01:01:24;8.27;;;7.47;;
60098;SDS011;62818;49.394;8.686;2022-11-20T01:02:29;8.43;;;7.63;;
60098;SDS011;62818;49.394;8.686;2022-11-20T01:03:33;8.47;;;7.67;;
60098;SDS011;62818;49.394;8.686;2022-11-20T01:04:36;8.50;;;7.70;;
60098;SDS011;62818;49.394;8.686;2022-11-20T01:05:37;8.80;;;7.90;;
60098;SDS011;62818;49.394;8.686;2022-11-20T01:06:42;8.57;;;7.68;;
60098;SDS011;62818;49.394;8.686;2022-11-20T01:07:42;8.77;;;7.93;;
60098;SDS011;62818;49.394;8.686;2022-11-20T01:08:43;8.80;;;7.90;;
60098;SDS011;62818;49.394;8.686;2022-11-20T01:09:45;8.60;;;7.50;;
60098;SDS011;62818;49.394;8.686;2022-11-20T01:10:45;8.50;;;7.70;;
60098;SDS011;62818;49.394;8.686;2022-11-20T01:11:53;8.88;;;8.05;;
60098;SDS011;62818;49.394;8.686;2022-11-20T01:12:58;8.55;;;7.75;;
60098;SDS011;62818;49.394;8.686;2022-11-20T01:14:22;8.57;;;7.70;;
60098;SDS011;62818;49.394;8.686;2022-11-20T01:15:25;8.35;;;7.55;;
60098;SDS011;62818;49.394;8.686;2022-11-20T01:16:26;8.23;;;7.43;;
60098;SDS011;62818;49.394;8.686;2022-11-20T01:17:35;7.93;;;7.13;;
60098;SDS011;62818;49.394;8.686;2022-11-20T01:18:35;7.43;;;6.72;;
60098;SDS011;62818;49.394;8.686;2022-11-20T01:19:38;9.18;;;7.35;;
60098;SDS011;62818;49.394;8.686;2022-11-20T01:20:41;8.50;;;7.30;;
60098;SDS011;62818;49.394;8.686;2022-11-20T01:21:48;7.82;;;7.07;;
60098;SDS011;62818;49.394;8.686;2022-11-20T01:22:51;10.52;;;6.82;;
60098;SDS011;62818;49.394;8.686;2022-11-20T01:23:52;7.73;;;6.57;;
60098;SDS011;62818;49.394;8.686;2022-11-20T01:24:52;8.00;;;7.20;;
60098;SDS011;62818;49.394;8.686;2022-11-20T01:25:55;8.43;;;7.70;;
60098;SDS011;62818;49.394;8.686;2022-11-20T01:26:56;7.82;;;7.03;;
60098;SDS011;62818;49.394;8.686;2022-11-20T01:28:03;7.85;;;7.15;;
60098;SDS011;62818;49.394;8.686;2022-11-20T01:29:06;7.38;;;6.68;;
60098;SDS011;62818;49.394;8.686;2022-11-20T01:30:15;7.95;;;7.15;;
60098;SDS011;62818;49.394;8.686;2022-11-20T01:31:17;7.87;;;7.10;;
60098;SDS011;62818;49.394;8.686;2022-11-20T01:32:24;8.77;;;7.97;;
60098;SDS011;62818;49.394;8.686;2022-11-20T01:33:27;8.32;;;7.53;;
60098;SDS011;62818;49.394;8.686;2022-11-20T01:34:27;8.32;;;7.43;;
60098;SDS011;62818;49.394;8.686;2022-11-20T01:35:30;9.05;;;7.65;;
60098;SDS011;62818;49.394;8.686;2022-11-20T01:36:32;7.80;;;7.00;;
60098;SDS011;62818;49.394;8.686;2022-11-20T01:37:37;7.97;;;6.95;;
60098;SDS011;62818;49.394;8.686;2022-11-20T01:38:38;7.53;;;6.73;;
60098;SDS011;62818;49.394;8.686;2022-11-20T01:39:41;9.00;;;7.60;;
60098;SDS011;62818;49.394;8.686;2022-11-20T01:40:44;8.18;;;7.20;;
60098;SDS011;62818;49.394;8.686;2022-11-20T01:41:45;8.77;;;7.63;;
60098;SDS011;62818;49.394;8.686;2022-11-20T01:43:20;9.43;;;8.52;;
60098;SDS011;62818;49.394;8.686;2022-11-20T01:44:45;8.60;;;7.72;;
60098;SDS011;62818;49.394;8.686;2022-11-20T01:45:52;9.82;;;8.43;;
60098;SDS011;62818;49.394;8.686;2022-11-20T01:47:02;10.52;;;9.35;;
60098;SDS011;62818;49.394;8.686;2022-11-20T01:48:06;10.30;;;9.30;;
60098;SDS011;62818;49.394;8.686;2022-11-20T01:50:46;11.27;;;10.18;;
60098;SDS011;62818;49.394;8.686;2022-11-20T01:51:52;10.85;;;9.85;;
60098;SDS011;62818;49.394;8.686;2022-11-20T01:53:06;11.95;;;10.60;;
60098;SDS011;62818;49.394;8.686;2022-11-20T01:55:22;11.50;;;10.32;;
60098;SDS011;62818;49.394;8.686;2022-11-20T01:56:30;11.20;;;10.07;;
60098;SDS011;62818;49.394;8.686;2022-11-20T01:57:37;12.13;;;10.07;;
60098;SDS011;62818;49.394;8.686;2022-11-20T01:58:42;11.25;;;10.05;;
60098;SDS011;62818;49.394;8.686;2022-11-20T01:59:55;11.60;;;10.18;;
60098;SDS011;62818;49.394;8.686;2022-11-20T02:01:10;11.52;;;10.32;;
60098;SDS011;62818;49.394;8.686;2022-11-20T02:02:14;12.85;;;9.82;;
60098;SDS011;62818;49.394;8.686;2022-11-20T02:03:16;12.57;;;10.53;;
60098;SDS011;62818;49.394;8.686;2022-11-20T02:04:21;11.20;;;10.00;;
60098;SDS011;62818;49.394;8.686;2022-11-20T02:05:31;11.98;;;10.77;;
60098;SDS011;62818;49.394;8.686;2022-11-20T02:06:46;11.48;;;10.18;;
60098;SDS011;62818;49.394;8.686;2022-11-20T02:07:51;11.55;;;10.35;;
60098;SDS011;62818;49.394;8.686;2022-11-20T02:09:02;11.88;;;10.68;;
60098;SDS011;62818;49.394;8.686;2022-11-20T02:10:04;12.00;;;10.63;;
60098;SDS011;62818;49.394;8.686;2022-11-20T02:11:08;13.70;;;11.10;;
60098;SDS011;62818;49.394;8.686;2022-11-20T02:12:08;10.43;;;9.25;;
60098;SDS011;62818;49.394;8.686;2022-11-20T02:13:29;10.98;;;9.85;;
60098;SDS011;62818;49.394;8.686;2022-11-20T02:14:45;11.75;;;9.15;;
60098;SDS011;62818;49.394;8.686;2022-11-20T02:15:46;10.90;;;9.30;;
60098;SDS011;62818;49.394;8.686;2022-11-20T02:16:52;11.90;;;10.70;;
60098;SDS011;62818;49.394;8.686;2022-11-20T02:17:57;11.10;;;9.90;;
60098;SDS011;62818;49.394;8.686;2022-11-20T02:19:01;10.43;;;9.43;;
60098;SDS011;62818;49.394;8.686;2022-11-20T02:20:14;10.85;;;9.85;;
60098;SDS011;62818;49.394;8.686;2022-11-20T02:22:49;11.18;;;9.95;;
60098;SDS011;62818;49.394;8.686;2022-11-20T02:25:16;11.55;;;9.88;;
60098;SDS011;62818;49.394;8.686;2022-11-20T02:26:19;10.98;;;9.82;;
60098;SDS011;62818;49.394;8.686;2022-11-20T02:27:28;12.07;;;10.05;;
60098;SDS011;62818;49.394;8.686;2022-11-20T02:28:33;10.98;;;9.88;;
60098;SDS011;62818;49.394;8.686;2022-11-20T02:29:42;10.27;;;9.27;;
60098;SDS011;62818;49.394;8.686;2022-11-20T02:31:04;10.23;;;9.18;;
60098;SDS011;62818;49.394;8.686;2022-11-20T02:32:24;10.38;;;9.38;;
60098;SDS011;62818;49.394;8.686;2022-11-20T02:33:33;10.40;;;9.15;;
60098;SDS011;62818;49.394;8.686;2022-11-20T02:34:36;11.88;;;9.65;;
60098;SDS011;62818;49.394;8.686;2022-11-20T02:35:40;11.55;;;9.20;;
60098;SDS011;62818;49.394;8.686;2022-11-20T02:36:46;12.20;;;9.80;;
60098;SDS011;62818;49.394;8.686;2022-11-20T02:37:52;10.93;;;9.43;;
60098;SDS011;62818;49.394;8.686;2022-11-20T02:38:55;10.48;;;9.38;;
60098;SDS011;62818;49.394;8.686;2022-11-20T02:39:58;10.48;;;9.23;;
60098;SDS011;62818;49.394;8.686;2022-11-20T02:40:58;10.37;;;9.33;;
60098;SDS011;62818;49.394;8.686;2022-11-20T02:42:01;10.88;;;9.75;;
60098;SDS011;62818;49.394;8.686;2022-11-20T02:43:02;10.80;;;8.88;;
60098;SDS011;62818;49.394;8.686;2022-11-20T02:44:03;10.07;;;9.07;;
60098;SDS011;62818;49.394;8.686;2022-11-20T02:45:09;11.18;;;10.07;;
60098;SDS011;62818;49.394;8.686;2022-11-20T02:46:12;12.15;;;10.18;;
60098;SDS011;62818;49.394;8.686;2022-11-20T02:47:13;12.67;;;10.17;;
60098;SDS011;62818;49.394;8.686;2022-11-20T02:48:13;11.17;;;9.63;;
60098;SDS011;62818;49.394;8.686;2022-11-20T02:49:16;10.68;;;9.52;;
60098;SDS011;62818;49.394;8.686;2022-11-20T02:50:17;10.27;;;9.23;;
60098;SDS011;62818;49.394;8.686;2022-11-20T02:51:19;10.35;;;9.15;;
60098;SDS011;62818;49.394;8.686;2022-11-20T02:52:20;11.97;;;10.43;;
60098;SDS011;62818;49.394;8.686;2022-11-20T02:53:20;10.87;;;9.77;;
60098;SDS011;62818;49.394;8.686;2022-11-20T02:54:23;13.82;;;10.48;;
60098;SDS011;62818;49.394;8.686;2022-11-20T02:55:26;12.52;;;10.32;;
60098;SDS011;62818;49.394;8.686;2022-11-20T02:56:31;13.30;;;10.68;;
60098;SDS011;62818;49.394;8.686;2022-11-20T02:57:34;11.48;;;10.15;;
60098;SDS011;62818;49.394;8.686;2022-11-20T02:58:35;12.25;;;10.20;;
60098;SDS011;62818;49.394;8.686;2022-11-20T02:59:40;11.98;;;10.25;;
60098;SDS011;62818;49.394;8.686;2022-11-20T03:00:43;11.57;;;10.35;;
60098;SDS011;62818;49.394;8.686;2022-11-20T03:01:44;11.90;;;9.83;;
60098;SDS011;62818;49.394;8.686;2022-11-20T03:02:49;11.70;;;10.13;;
60098;SDS011;62818;49.394;8.686;2022-11-20T03:03:57;14.57;;;10.57;;
60098;SDS011;62818;49.394;8.686;2022-11-20T03:05:00;11.43;;;9.63;;
60098;SDS011;62818;49.394;8.686;2022-11-20T03:06:01;11.07;;;9.98;;
60098;SDS011;62818;49.394;8.686;2022-11-20T03:07:01;12.03;;;9.80;;
60098;SDS011;62818;49.394;8.686;2022-11-20T03:08:06;12.68;;;10.35;;
60098;SDS011;62818;49.394;8.686;2022-11-20T03:09:07;11.67;;;10.00;;
60098;SDS011;62818;49.394;8.686;2022-11-20T03:10:10;12.93;;;10.43;;
60098;SDS011;62818;49.394;8.686;2022-11-20T03:11:11;12.90;;;10.50;;
60098;SDS011;62818;49.394;8.686;2022-11-20T03:12:16;12.73;;;11.35;;
60098;SDS011;62818;49.394;8.686;2022-11-20T03:13:19;13.88;;;11.20;;
60098;SDS011;62818;49.394;8.686;2022-11-20T03:14:22;13.57;;;11.25;;
60098;SDS011;62818;49.394;8.686;2022-11-20T03:15:24;12.40;;;11.07;;
60098;SDS011;62818;49.394;8.686;2022-11-20T03:16:27;14.70;;;11.50;;
60098;SDS011;62818;49.394;8.686;2022-11-20T03:17:30;16.73;;;12.03;;
60098;SDS011;62818;49.394;8.686;2022-11-20T03:18:30;13.88;;;11.93;;
60098;SDS011;62818;49.394;8.686;2022-11-20T03:19:33;13.90;;;12.00;;
60098;SDS011;62818;49.394;8.686;2022-11-20T03:20:34;11.87;;;10.67;;
60098;SDS011;62818;49.394;8.686;2022-11-20T03:21:37;13.98;;;11.40;;
60098;SDS011;62818;49.394;8.686;2022-11-20T03:22:40;12.90;;;11.23;;
60098;SDS011;62818;49.394;8.686;2022-11-20T03:23:43;12.40;;;10.90;;
60098;SDS011;62818;49.394;8.686;2022-11-20T03:24:45;14.43;;;11.93;;
60098;SDS011;62818;49.394;8.686;2022-11-20T03:25:48;18.80;;;13.48;;
60098;SDS011;62818;49.394;8.686;2022-11-20T03:26:51;14.98;;;12.18;;
60098;SDS011;62818;49.394;8.686;2022-11-20T03:27:52;15.73;;;13.33;;
60098;SDS011;62818;49.394;8.686;2022-11-20T03:30:01;16.17;;;12.25;;
60098;SDS011;62818;49.394;8.686;2022-11-20T03:31:09;17.58;;;13.68;;
60098;SDS011;62818;49.394;8.686;2022-11-20T03:32:15;17.60;;;14.35;;
60098;SDS011;62818;49.394;8.686;2022-11-20T03:33:16;18.70;;;14.87;;
60098;SDS011;62818;49.394;8.686;2022-11-20T03:34:19;19.60;;;15.90;;
60098;SDS011;62818;49.394;8.686;2022-11-20T03:35:19;21.20;;;16.60;;
60098;SDS011;62818;49.394;8.686;2022-11-20T03:36:24;19.20;;;14.32;;
60098;SDS011;62818;49.394;8.686;2022-11-20T03:37:29;18.50;;;13.82;;
60098;SDS011;62818;49.394;8.686;2022-11-20T03:38:30;20.10;;;15.10;;
60098;SDS011;62818;49.394;8.686;2022-11-20T03:39:36;20.13;;;13.73;;
60098;SDS011;62818;49.394;8.686;2022-11-20T03:40:36;16.75;;;13.55;;
60098;SDS011;62818;49.394;8.686;2022-11-20T03:41:40;19.55;;;14.25;;
60098;SDS011;62818;49.394;8.686;2022-11-20T03:42:42;21.88;;;15.18;;
60098;SDS011;62818;49.394;8.686;2022-11-20T03:43:48;17.92;;;13.90;;
60098;SDS011;62818;49.394;8.686;2022-11-20T03:44:54;22.45;;;15.85;;
60098;SDS011;62818;49.394;8.686;2022-11-20T03:45:55;20.23;;;15.93;;
60098;SDS011;62818;49.394;8.686;2022-11-20T03:46:56;21.65;;;14.73;;
60098;SDS011;62818;49.394;8.686;2022-11-20T03:47:59;22.45;;;16.20;;
60098;SDS011;62818;49.394;8.686;2022-11-20T03:49:04;21.08;;;17.05;;
60098;SDS011;62818;49.394;8.686;2022-11-20T03:50:11;23.52;;;17.70;;
60098;SDS011;62818;49.394;8.686;2022-11-20T03:51:17;23.45;;;17.23;;
60098;SDS011;62818;49.394;8.686;2022-11-20T03:52:28;24.42;;;18.38;;
60098;SDS011;62818;49.394;8.686;2022-11-20T03:53:31;24.15;;;17.60;;
60098;SDS011;62818;49.394;8.686;2022-11-20T03:54:34;26.73;;;19.33;;
60098;SDS011;62818;49.394;8.686;2022-11-20T03:55:39;20.45;;;16.52;;
60098;SDS011;62818;49.394;8.686;2022-11-20T03:56:41;22.58;;;16.48;;
60098;SDS011;62818;49.394;8.686;2022-11-20T03:57:49;22.30;;;16.50;;
60098;SDS011;62818;49.394;8.686;2022-11-20T03:58:50;22.87;;;17.20;;
60098;SDS011;62818;49.394;8.686;2022-11-20T03:59:50;25.40;;;18.40;;
60098;SDS011;62818;49.394;8.686;2022-11-20T04:00:55;22.30;;;16.30;;
60098;SDS011;62818;49.394;8.686;2022-11-20T04:01:56;24.03;;;18.00;;
60098;SDS011;62818;49.394;8.686;2022-11-20T04:03:00;24.77;;;17.40;;
60098;SDS011;62818;49.394;8.686;2022-11-20T04:04:03;23.05;;;17.50;;
60098;SDS011;62818;49.394;8.686;2022-11-20T04:05:05;22.05;;;17.63;;
60098;SDS011;62818;49.394;8.686;2022-11-20T04:06:08;22.73;;;16.33;;
60098;SDS011;62818;49.394;8.686;2022-11-20T04:07:14;19.67;;;16.20;;
60098;SDS011;62818;49.394;8.686;2022-11-20T04:08:17;23.02;;;17.23;;
60098;SDS011;62818;49.394;8.686;2022-11-20T04:09:27;18.83;;;16.30;;
60098;SDS011;62818;49.394;8.686;2022-11-20T04:10:28;22.08;;;17.27;;
60098;SDS011;62818;49.394;8.686;2022-11-20T04:11:31;21.25;;;16.85;;
60098;SDS011;62818;49.394;8.686;2022-11-20T04:12:35;19.45;;;15.88;;
60098;SDS011;62818;49.394;8.686;2022-11-20T04:13:35;19.63;;;16.80;;
60098;SDS011;62818;49.394;8.686;2022-11-20T04:14:43;22.20;;;17.25;;
60098;SDS011;62818;49.394;8.686;2022-11-20T04:15:44;26.40;;;18.73;;
60098;SDS011;62818;49.394;8.686;2022-11-20T04:16:46;24.25;;;17.85;;
60098;SDS011;62818;49.394;8.686;2022-11-20T04:17:49;19.20;;;17.08;;
60098;SDS011;62818;49.394;8.686;2022-11-20T04:18:54;19.13;;;15.60;;
60098;SDS011;62818;49.394;8.686;2022-11-20T04:19:59;22.77;;;16.38;;
60098;SDS011;62818;49.394;8.686;2022-11-20T04:20:59;20.10;;;16.70;;
60098;SDS011;62818;49.394;8.686;2022-11-20T04:22:00;19.80;;;16.23;;
60098;SDS011;62818;49.394;8.686;2022-11-20T04:23:05;20.25;;;16.55;;
60098;SDS011;62818;49.394;8.686;2022-11-20T04:24:06;26.05;;;18.38;;
60098;SDS011;62818;49.394;8.686;2022-11-20T04:25:07;20.70;;;17.33;;
60098;SDS011;62818;49.394;8.686;2022-11-20T04:26:09;20.52;;;16.63;;
60098;SDS011;62818;49.394;8.686;2022-11-20T04:27:14;20.08;;;16.30;;
60098;SDS011;62818;49.394;8.686;2022-11-20T04:28:14;18.08;;;15.48;;
60098;SDS011;62818;49.394;8.686;2022-11-20T04:29:20;19.85;;;16.08;;
60098;SDS011;62818;49.394;8.686;2022-11-20T04:30:21;23.77;;;17.43;;
60098;SDS011;62818;49.394;8.686;2022-11-20T04:31:25;21.57;;;16.73;;
60098;SDS011;62818;49.394;8.686;2022-11-20T04:32:29;18.05;;;14.00;;
60098;SDS011;62818;49.394;8.686;2022-11-20T04:33:32;18.05;;;14.48;;
60098;SDS011;62818;49.394;8.686;2022-11-20T04:34:34;18.50;;;15.05;;
60098;SDS011;62818;49.394;8.686;2022-11-20T04:35:38;19.27;;;15.63;;
60098;SDS011;62818;49.394;8.686;2022-11-20T04:36:41;20.55;;;16.10;;
60098;SDS011;62818;49.394;8.686;2022-11-20T04:37:42;19.75;;;14.95;;
60098;SDS011;62818;49.394;8.686;2022-11-20T04:38:45;19.00;;;15.27;;
60098;SDS011;62818;49.394;8.686;2022-11-20T04:39:46;21.35;;;15.95;;
60098;SDS011;62818;49.394;8.686;2022-11-20T04:40:52;17.65;;;14.88;;
60098;SDS011;62818;49.394;8.686;2022-11-20T04:42:00;19.77;;;15.98;;
60098;SDS011;62818;49.394;8.686;2022-11-20T04:43:19;17.70;;;14.53;;
60098;SDS011;62818;49.394;8.686;2022-11-20T04:44:24;17.58;;;14.00;;
60098;SDS011;62818;49.394;8.686;2022-11-20T04:45:27;19.58;;;14.82;;
60098;SDS011;62818;49.394;8.686;2022-11-20T04:46:36;17.92;;;15.40;;
60098;SDS011;62818;49.394;8.686;2022-11-20T04:48:42;19.00;;;14.32;;
60098;SDS011;62818;49.394;8.686;2022-11-20T04:49:43;18.30;;;14.48;;
60098;SDS011;62818;49.394;8.686;2022-11-20T04:50:46;19.63;;;15.00;;
60098;SDS011;62818;49.394;8.686;2022-11-20T04:51:52;17.48;;;14.73;;
60098;SDS011;62818;49.394;8.686;2022-11-20T04:52:56;17.85;;;13.50;;
60098;SDS011;62818;49.394;8.686;2022-11-20T04:54:01;20.27;;;14.15;;
60098;SDS011;62818;49.394;8.686;2022-11-20T04:55:02;17.67;;;14.52;;
60098;SDS011;62818;49.394;8.686;2022-11-20T04:57:07;16.65;;;14.10;;
60098;SDS011;62818;49.394;8.686;2022-11-20T04:58:08;18.10;;;15.23;;
60098;SDS011;62818;49.394;8.686;2022-11-20T04:59:08;17.37;;;15.07;;
60098;SDS011;62818;49.394;8.686;2022-11-20T05:00:12;19.23;;;15.48;;
60098;SDS011;62818;49.394;8.686;2022-11-20T05:01:17;18.40;;;14.82;;
60098;SDS011;62818;49.394;8.686;2022-11-20T05:02:21;21.42;;;15.07;;
60098;SDS011;62818;49.394;8.686;2022-11-20T05:03:21;21.17;;;14.90;;
60098;SDS011;62818;49.394;8.686;2022-11-20T05:04:22;19.30;;;13.80;;
60098;SDS011;62818;49.394;8.686;2022-11-20T05:05:22;20.92;;;16.17;;
60098;SDS011;62818;49.394;8.686;2022-11-20T05:06:25;20.95;;;15.57;;
60098;SDS011;62818;49.394;8.686;2022-11-20T05:07:28;20.38;;;16.27;;
60098;SDS011;62818;49.394;8.686;2022-11-20T05:08:31;22.63;;;15.90;;
60098;SDS011;62818;49.394;8.686;2022-11-20T05:09:33;20.83;;;15.57;;
60098;SDS011;62818;49.394;8.686;2022-11-20T05:10:35;16.75;;;14.93;;
60098;SDS011;62818;49.394;8.686;2022-11-20T05:11:38;19.50;;;15.37;;
60098;SDS011;62818;49.394;8.686;2022-11-20T05:12:41;18.48;;;14.55;;
60098;SDS011;62818;49.394;8.686;2022-11-20T05:13:47;19.73;;;15.23;;
60098;SDS011;62818;49.394;8.686;2022-11-20T05:14:48;20.08;;;14.68;;
60098;SDS011;62818;49.394;8.686;2022-11-20T05:15:51;18.37;;;14.23;;
60098;SDS011;62818;49.394;8.686;2022-11-20T05:16:51;24.10;;;17.52;;
60098;SDS011;62818;49.394;8.686;2022-11-20T05:17:52;21.33;;;15.57;;
60098;SDS011;62818;49.394;8.686;2022-11-20T05:18:55;20.73;;;16.92;;
60098;SDS011;62818;49.394;8.686;2022-11-20T05:19:59;19.00;;;15.47;;
60098;SDS011;62818;49.394;8.686;2022-11-20T05:21:01;18.95;;;15.18;;
60098;SDS011;62818;49.394;8.686;2022-11-20T05:22:04;21.08;;;16.83;;
60098;SDS011;62818;49.394;8.686;2022-11-20T05:23:07;21.65;;;16.05;;
60098;SDS011;62818;49.394;8.686;2022-11-20T05:24:10;20.70;;;16.17;;
60098;SDS011;62818;49.394;8.686;2022-11-20T05:25:11;23.13;;;17.02;;
60098;SDS011;62818;49.394;8.686;2022-11-20T05:26:15;19.90;;;16.75;;
60098;SDS011;62818;49.394;8.686;2022-11-20T05:27:18;19.27;;;16.63;;
60098;SDS011;62818;49.394;8.686;2022-11-20T05:28:20;19.23;;;15.75;;
60098;SDS011;62818;49.394;8.686;2022-11-20T05:29:29;18.85;;;16.45;;
60098;SDS011;62818;49.394;8.686;2022-11-20T05:30:30;20.50;;;17.80;;
60098;SDS011;62818;49.394;8.686;2022-11-20T05:31:35;22.27;;;16.67;;
60098;SDS011;62818;49.394;8.686;2022-11-20T05:32:39;19.92;;;16.35;;
60098;SDS011;62818;49.394;8.686;2022-11-20T05:33:45;20.60;;;17.30;;
60098;SDS011;62818;49.394;8.686;2022-11-20T05:34:46;21.00;;;16.13;;
60098;SDS011;62818;49.394;8.686;2022-11-20T05:35:49;20.02;;;16.30;;
60098;SDS011;62818;49.394;8.686;2022-11-20T05:36:51;20.65;;;16.67;;
60098;SDS011;62818;49.394;8.686;2022-11-20T05:37:54;19.70;;;16.45;;
60098;SDS011;62818;49.394;8.686;2022-11-20T05:38:59;20.92;;;16.67;;
60098;SDS011;62818;49.394;8.686;2022-11-20T05:40:00;21.27;;;17.08;;
60098;SDS011;62818;49.394;8.686;2022-11-20T05:41:04;23.23;;;18.50;;
60098;SDS011;62818;49.394;8.686;2022-11-20T05:42:10;22.45;;;18.15;;
60098;SDS011;62818;49.394;8.686;2022-11-20T05:43:38;21.75;;;17.48;;
60098;SDS011;62818;49.394;8.686;2022-11-20T05:44:43;19.55;;;17.20;;
60098;SDS011;62818;49.394;8.686;2022-11-20T05:45:51;23.03;;;18.93;;
60098;SDS011;62818;49.394;8.686;2022-11-20T05:46:57;21.42;;;17.58;;
60098;SDS011;62818;49.394;8.686;2022-11-20T05:47:58;23.90;;;17.50;;
60098;SDS011;62818;49.394;8.686;2022-11-20T05:49:00;22.70;;;17.45;;
60098;SDS011;62818;49.394;8.686;2022-11-20T05:50:02;23.02;;;16.95;;
60098;SDS011;62818;49.394;8.686;2022-11-20T05:51:09;22.23;;;17.70;;
60098;SDS011;62818;49.394;8.686;2022-11-20T05:52:14;20.38;;;16.60;;
60098;SDS011;62818;49.394;8.686;2022-11-20T05:53:14;23.20;;;17.73;;
60098;SDS011;62818;49.394;8.686;2022-11-20T05:54:18;20.67;;;16.42;;
60098;SDS011;62818;49.394;8.686;2022-11-20T05:55:18;22.17;;;18.03;;
60098;SDS011;62818;49.394;8.686;2022-11-20T05:56:21;24.50;;;17.85;;
60098;SDS011;62818;49.394;8.686;2022-11-20T05:57:24;21.90;;;17.48;;
60098;SDS011;62818;49.394;8.686;2022-11-20T05:58:27;24.00;;;19.73;;
60098;SDS011;62818;49.394;8.686;2022-11-20T05:59:31;21.88;;;18.02;;
60098;SDS011;62818;49.394;8.686;2022-11-20T06:00:34;21.97;;;17.60;;
60098;SDS011;62818;49.394;8.686;2022-11-20T06:01:35;24.33;;;18.30;;
60098;SDS011;62818;49.394;8.686;2022-11-20T06:02:37;22.58;;;17.95;;
60098;SDS011;62818;49.394;8.686;2022-11-20T06:03:41;21.58;;;17.08;;
60098;SDS011;62818;49.394;8.686;2022-11-20T06:04:47;21.90;;;16.38;;
60098;SDS011;62818;49.394;8.686;2022-11-20T06:05:50;22.90;;;16.60;;
60098;SDS011;62818;49.394;8.686;2022-11-20T06:06:53;21.20;;;17.43;;
60098;SDS011;62818;49.394;8.686;2022-11-20T06:07:56;20.55;;;16.17;;
60098;SDS011;62818;49.394;8.686;2022-11-20T06:09:00;20.83;;;16.38;;
60098;SDS011;62818;49.394;8.686;2022-11-20T06:10:03;19.48;;;15.82;;
60098;SDS011;62818;49.394;8.686;2022-11-20T06:11:09;20.05;;;15.60;;
60098;SDS011;62818;49.394;8.686;2022-11-20T06:12:14;21.00;;;17.25;;
60098;SDS011;62818;49.394;8.686;2022-11-20T06:13:17;18.20;;;15.05;;
60098;SDS011;62818;49.394;8.686;2022-11-20T06:14:17;18.57;;;15.60;;
60098;SDS011;62818;49.394;8.686;2022-11-20T06:15:18;19.30;;;16.10;;
60098;SDS011;62818;49.394;8.686;2022-11-20T06:16:19;19.30;;;15.27;;
60098;SDS011;62818;49.394;8.686;2022-11-20T06:17:22;21.77;;;15.93;;
60098;SDS011;62818;49.394;8.686;2022-11-20T06:18:25;18.60;;;16.60;;
60098;SDS011;62818;49.394;8.686;2022-11-20T06:19:30;21.13;;;15.48;;
60098;SDS011;62818;49.394;8.686;2022-11-20T06:20:30;21.50;;;14.93;;
60098;SDS011;62818;49.394;8.686;2022-11-20T06:21:31;20.13;;;14.93;;
60098;SDS011;62818;49.394;8.686;2022-11-20T06:22:33;21.83;;;15.00;;
60098;SDS011;62818;49.394;8.686;2022-11-20T06:23:34;18.77;;;14.77;;
60098;SDS011;62818;49.394;8.686;2022-11-20T06:24:40;21.27;;;14.88;;
60098;SDS011;62818;49.394;8.686;2022-11-20T06:25:43;19.65;;;14.65;;
60098;SDS011;62818;49.394;8.686;2022-11-20T06:26:46;16.87;;;13.90;;
60098;SDS011;62818;49.394;8.686;2022-11-20T06:27:46;21.05;;;16.20;;